createdAt,value
2018-05-12T00:00:48.533Z,12.83
2018-05-12T00:01:48.543Z,12.90
2018-05-12T00:02:48.549Z,12.76
2018-05-12T00:03:48.534Z,12.65
2018-05-12T00:04:48.766Z,12.60
2018-05-12T00:05:48.642Z,12.54
2018-05-12T00:06:48.741Z,12.53
2018-05-12T00:07:48.534Z,12.40
2018-05-12T00:08:48.536Z,12.39
2018-05-12T00:09:48.537Z,12.29
2018-05-12T00:10:48.751Z,12.31
2018-05-12T00:11:48.552Z,12.20
2018-05-12T00:12:48.539Z,12.15
2018-05-12T00:13:48.751Z,12.03
2018-05-12T00:14:48.749Z,12.04
2018-05-12T00:15:48.537Z,12.12
2018-05-12T00:16:48.537Z,12.09
2018-05-12T00:17:48.550Z,12.15
2018-05-12T00:18:48.541Z,12.12
2018-05-12T00:19:48.539Z,12.18
2018-05-12T00:20:48.539Z,12.17
2018-05-12T00:21:48.562Z,12.06
2018-05-12T00:22:48.565Z,12.09
2018-05-12T00:23:48.552Z,12.10
2018-05-12T00:24:48.746Z,12.03
2018-05-12T00:25:48.539Z,12.02
2018-05-12T00:26:48.539Z,11.95
2018-05-12T00:27:48.544Z,12.07
2018-05-12T00:28:48.544Z,11.97
2018-05-12T00:29:48.541Z,12.00
2018-05-12T00:30:48.546Z,12.04
2018-05-12T00:31:48.550Z,12.15
2018-05-12T00:32:48.557Z,12.10
2018-05-12T00:33:48.554Z,12.17
2018-05-12T00:34:48.551Z,12.28
2018-05-12T00:35:48.551Z,12.18
2018-05-12T00:36:48.542Z,12.18
2018-05-12T00:37:48.558Z,12.04
2018-05-12T00:38:48.566Z,11.87
2018-05-12T00:39:48.541Z,11.81
2018-05-12T00:40:48.745Z,11.83
2018-05-12T00:41:48.743Z,11.69
2018-05-12T00:42:48.777Z,11.63
2018-05-12T00:43:48.758Z,11.69
2018-05-12T00:44:48.542Z,11.68
2018-05-12T00:45:48.542Z,11.63
2018-05-12T00:46:48.541Z,11.59
2018-05-12T00:47:48.744Z,11.72
2018-05-12T00:48:48.748Z,11.72
2018-05-12T00:49:48.744Z,11.73
2018-05-12T00:50:48.555Z,11.70
2018-05-12T00:51:48.542Z,11.73
2018-05-12T00:52:48.540Z,11.84
2018-05-12T00:53:48.541Z,11.77
2018-05-12T00:54:48.540Z,11.94
2018-05-12T00:55:48.629Z,11.94
2018-05-12T00:56:48.759Z,12.07
2018-05-12T00:57:48.556Z,12.10
2018-05-12T00:58:48.754Z,12.18
2018-05-12T00:59:48.543Z,11.95
2018-05-12T01:00:48.573Z,11.86
2018-05-12T01:01:48.571Z,11.69
2018-05-12T01:02:48.745Z,11.47
2018-05-12T01:03:48.749Z,11.30
2018-05-12T01:04:48.543Z,11.11
2018-05-12T01:05:48.543Z,11.11
2018-05-12T01:06:48.748Z,11.00
2018-05-12T01:07:48.567Z,11.05
2018-05-12T01:08:48.543Z,11.10
2018-05-12T01:09:48.555Z,11.04
2018-05-12T01:10:48.545Z,10.93
2018-05-12T01:11:48.751Z,11.02
2018-05-12T01:12:48.542Z,10.94
2018-05-12T01:13:48.545Z,10.94
2018-05-12T01:14:48.747Z,10.90
2018-05-12T01:15:48.543Z,10.81
2018-05-12T01:16:48.554Z,10.76
2018-05-12T01:17:48.745Z,10.71
2018-05-12T01:18:48.541Z,10.61
2018-05-12T01:19:48.750Z,10.41
2018-05-12T01:20:48.559Z,10.37
2018-05-12T01:21:48.543Z,10.30
2018-05-12T01:22:48.559Z,10.31
2018-05-12T01:23:48.543Z,10.34
2018-05-12T01:24:48.547Z,10.33
2018-05-12T01:25:48.557Z,10.37
2018-05-12T01:26:48.540Z,10.33
2018-05-12T01:27:48.540Z,10.40
2018-05-12T01:28:48.538Z,10.38
2018-05-12T01:29:48.742Z,10.42
2018-05-12T01:30:48.542Z,10.44
2018-05-12T01:31:48.537Z,10.42
2018-05-12T01:32:48.740Z,10.38
2018-05-12T01:33:48.739Z,10.46
2018-05-12T01:34:48.536Z,10.44
2018-05-12T01:35:48.535Z,10.44
2018-05-12T01:36:48.534Z,10.42
2018-05-12T01:37:48.738Z,10.42
2018-05-12T01:38:48.737Z,10.46
2018-05-12T01:39:48.535Z,10.48
2018-05-12T01:40:48.742Z,10.44
2018-05-12T01:41:48.534Z,10.42
2018-05-12T01:42:48.544Z,10.44
2018-05-12T01:43:48.546Z,10.37
2018-05-12T01:44:48.533Z,10.37
2018-05-12T01:45:48.531Z,10.25
2018-05-12T01:46:48.531Z,10.22
2018-05-12T01:47:48.554Z,10.28
2018-05-12T01:48:48.529Z,10.22
2018-05-12T01:49:48.544Z,10.22
2018-05-12T01:50:48.528Z,10.19
2018-05-12T01:51:48.526Z,10.23
2018-05-12T01:52:48.527Z,10.19
2018-05-12T01:53:48.526Z,10.22
2018-05-12T01:54:48.525Z,10.22
2018-05-12T01:55:48.729Z,10.30
2018-05-12T01:56:48.746Z,10.35
2018-05-12T01:57:48.533Z,10.33
2018-05-12T01:58:48.525Z,10.34
2018-05-12T01:59:48.725Z,10.28
2018-05-12T02:00:48.520Z,10.20
2018-05-12T02:01:48.733Z,10.12
2018-05-12T02:02:48.522Z,9.97
2018-05-12T02:03:48.733Z,9.91
2018-05-12T02:04:48.517Z,9.84
2018-05-12T02:05:48.518Z,9.76
2018-05-12T02:06:48.719Z,9.76
2018-05-12T02:07:48.517Z,9.73
2018-05-12T02:08:48.527Z,9.76
2018-05-12T02:09:48.731Z,9.74
2018-05-12T02:10:48.752Z,9.74
2018-05-12T02:11:48.538Z,9.69
2018-05-12T02:12:48.523Z,9.69
2018-05-12T02:13:48.513Z,9.74
2018-05-12T02:14:48.729Z,9.68
2018-05-12T02:15:48.528Z,9.69
2018-05-12T02:16:48.512Z,9.73
2018-05-12T02:17:48.736Z,9.76
2018-05-12T02:18:48.525Z,9.74
2018-05-12T02:19:48.712Z,9.69
2018-05-12T02:20:48.509Z,9.65
2018-05-12T02:21:48.533Z,9.58
2018-05-12T02:22:48.508Z,9.47
2018-05-12T02:23:48.516Z,9.48
2018-05-12T02:24:48.726Z,9.37
2018-05-12T02:25:48.515Z,9.29
2018-05-12T02:26:48.503Z,9.31
2018-05-12T02:27:48.726Z,9.39
2018-05-12T02:28:48.502Z,9.44
2018-05-12T02:29:48.511Z,9.44
2018-05-12T02:30:48.503Z,9.46
2018-05-12T02:31:48.711Z,9.44
2018-05-12T02:32:48.500Z,9.44
2018-05-12T02:33:48.713Z,9.44
2018-05-12T02:34:48.511Z,9.47
2018-05-12T02:35:48.494Z,9.54
2018-05-12T02:36:48.498Z,9.54
2018-05-12T02:37:48.507Z,9.56
2018-05-12T02:38:48.495Z,9.56
2018-05-12T02:39:48.518Z,9.64
2018-05-12T02:40:48.512Z,9.69
2018-05-12T02:41:48.702Z,9.68
2018-05-12T02:42:48.486Z,9.69
2018-05-12T02:43:48.487Z,9.73
2018-05-12T02:44:48.503Z,9.73
2018-05-12T02:45:48.490Z,9.68
2018-05-12T02:46:48.499Z,9.79
2018-05-12T02:47:48.500Z,9.84
2018-05-12T02:48:48.701Z,9.77
2018-05-12T02:49:48.485Z,9.77
2018-05-12T02:50:48.486Z,9.73
2018-05-12T02:51:48.499Z,9.65
2018-05-12T02:52:48.479Z,9.59
2018-05-12T02:53:48.510Z,9.44
2018-05-12T02:54:48.488Z,9.40
2018-05-12T02:55:48.676Z,9.32
2018-05-12T02:56:48.479Z,9.31
2018-05-12T02:57:48.491Z,9.32
2018-05-12T02:58:48.475Z,9.32
2018-05-12T02:59:48.488Z,9.32
2018-05-12T03:00:48.473Z,9.29
2018-05-12T03:01:48.496Z,9.37
2018-05-12T03:02:48.469Z,9.48
2018-05-12T03:03:48.471Z,9.50
2018-05-12T03:04:48.679Z,9.46
2018-05-12T03:05:48.465Z,9.46
2018-05-12T03:06:48.487Z,9.47
2018-05-12T03:07:48.474Z,9.50
2018-05-12T03:08:48.664Z,9.46
2018-05-12T03:09:48.463Z,9.43
2018-05-12T03:10:48.689Z,9.31
2018-05-12T03:11:48.458Z,9.16
2018-05-12T03:12:48.683Z,9.25
2018-05-12T03:13:48.458Z,9.26
2018-05-12T03:14:48.456Z,9.29
2018-05-12T03:15:48.466Z,9.32
2018-05-12T03:16:48.655Z,9.34
2018-05-12T03:17:48.454Z,9.36
2018-05-12T03:18:48.654Z,9.39
2018-05-12T03:19:48.453Z,9.36
2018-05-12T03:20:48.453Z,9.43
2018-05-12T03:21:48.448Z,9.39
2018-05-12T03:22:48.678Z,9.43
2018-05-12T03:23:48.459Z,9.37
2018-05-12T03:24:48.466Z,9.47
2018-05-12T03:25:48.446Z,9.46
2018-05-12T03:26:48.443Z,9.44
2018-05-12T03:27:48.451Z,9.44
2018-05-12T03:28:48.440Z,9.50
2018-05-12T03:29:48.656Z,9.47
2018-05-12T03:30:48.448Z,9.54
2018-05-12T03:31:48.437Z,9.46
2018-05-12T03:32:48.437Z,9.31
2018-05-12T03:33:48.442Z,9.29
2018-05-12T03:34:48.638Z,9.28
2018-05-12T03:35:48.632Z,9.22
2018-05-12T03:36:48.435Z,9.18
2018-05-12T03:37:48.441Z,9.14
2018-05-12T03:38:48.458Z,9.13
2018-05-12T03:39:48.447Z,9.16
2018-05-12T03:40:48.657Z,9.22
2018-05-12T03:41:48.439Z,9.25
2018-05-12T03:42:48.440Z,9.36
2018-05-12T03:43:48.424Z,9.28
2018-05-12T03:44:48.438Z,9.25
2018-05-12T03:45:48.443Z,9.34
2018-05-12T03:46:48.436Z,9.31
2018-05-12T03:47:48.433Z,9.36
2018-05-12T03:48:48.637Z,9.34
2018-05-12T03:49:48.619Z,9.31
2018-05-12T03:50:48.414Z,9.41
2018-05-12T03:51:48.429Z,9.34
2018-05-12T03:52:48.416Z,9.31
2018-05-12T03:53:48.412Z,9.34
2018-05-12T03:54:48.426Z,9.32
2018-05-12T03:55:48.614Z,9.31
2018-05-12T03:56:48.410Z,9.36
2018-05-12T03:57:48.409Z,9.34
2018-05-12T03:58:48.628Z,9.34
2018-05-12T03:59:48.419Z,9.31
2018-05-12T04:00:48.426Z,9.43
2018-05-12T04:01:48.419Z,9.46
2018-05-12T04:02:48.414Z,9.43
2018-05-12T04:03:48.415Z,9.43
2018-05-12T04:04:48.405Z,9.39
2018-05-12T04:05:48.409Z,9.37
2018-05-12T04:06:48.426Z,9.32
2018-05-12T04:07:48.415Z,9.28
2018-05-12T04:08:48.407Z,9.39
2018-05-12T04:09:48.405Z,9.41
2018-05-12T04:10:48.393Z,9.47
2018-05-12T04:11:48.408Z,9.46
2018-05-12T04:12:48.392Z,9.50
2018-05-12T04:13:48.388Z,9.54
2018-05-12T04:14:48.592Z,9.61
2018-05-12T04:15:48.406Z,9.61
2018-05-12T04:16:48.621Z,9.68
2018-05-12T04:17:48.588Z,9.62
2018-05-12T04:18:48.384Z,9.58
2018-05-12T04:19:48.400Z,9.59
2018-05-12T04:20:48.392Z,9.62
2018-05-12T04:21:48.392Z,9.64
2018-05-12T04:22:48.384Z,9.68
2018-05-12T04:23:48.379Z,9.59
2018-05-12T04:24:48.376Z,9.68
2018-05-12T04:25:48.591Z,9.68
2018-05-12T04:26:48.581Z,9.72
2018-05-12T04:27:48.374Z,9.68
2018-05-12T04:28:48.384Z,9.68
2018-05-12T04:29:48.389Z,9.69
2018-05-12T04:30:48.372Z,9.61
2018-05-12T04:31:48.399Z,9.58
2018-05-12T04:32:48.368Z,9.64
2018-05-12T04:33:48.381Z,9.65
2018-05-12T04:34:48.366Z,9.69
2018-05-12T04:35:48.366Z,9.72
2018-05-12T04:36:48.365Z,9.76
2018-05-12T04:37:48.377Z,9.79
2018-05-12T04:38:48.580Z,9.82
2018-05-12T04:39:48.377Z,9.87
2018-05-12T04:40:48.370Z,9.87
2018-05-12T04:41:48.573Z,9.89
2018-05-12T04:42:48.387Z,9.94
2018-05-12T04:43:48.366Z,9.95
2018-05-12T04:44:48.575Z,10.07
2018-05-12T04:45:48.366Z,10.05
2018-05-12T04:46:48.363Z,10.12
2018-05-12T04:47:48.367Z,10.22
2018-05-12T04:48:48.554Z,10.22
2018-05-12T04:49:48.370Z,10.23
2018-05-12T04:50:48.350Z,10.30
2018-05-12T04:51:48.357Z,10.33
2018-05-12T04:52:48.564Z,10.41
2018-05-12T04:53:48.361Z,10.41
2018-05-12T04:54:48.362Z,10.49
2018-05-12T04:55:48.345Z,10.40
2018-05-12T04:56:48.559Z,10.49
2018-05-12T04:57:48.547Z,10.46
2018-05-12T04:58:48.342Z,10.49
2018-05-12T04:59:48.341Z,10.64
2018-05-12T05:00:48.339Z,10.57
2018-05-12T05:01:48.348Z,10.67
2018-05-12T05:02:48.542Z,10.69
2018-05-12T05:03:48.553Z,10.60
2018-05-12T05:04:48.364Z,10.72
2018-05-12T05:05:48.538Z,10.75
2018-05-12T05:06:48.341Z,10.86
2018-05-12T05:07:48.333Z,10.92
2018-05-12T05:08:48.535Z,10.97
2018-05-12T05:09:48.346Z,10.96
2018-05-12T05:10:48.341Z,11.00
2018-05-12T05:11:48.331Z,11.02
2018-05-12T05:12:48.353Z,11.07
2018-05-12T05:13:48.340Z,11.08
2018-05-12T05:14:48.340Z,11.17
2018-05-12T05:15:48.329Z,11.18
2018-05-12T05:16:48.539Z,11.19
2018-05-12T05:17:48.338Z,11.30
2018-05-12T05:18:48.578Z,11.33
2018-05-12T05:19:48.326Z,11.32
2018-05-12T05:20:48.351Z,11.35
2018-05-12T05:21:48.347Z,11.37
2018-05-12T05:22:48.323Z,11.47
2018-05-12T05:23:48.526Z,11.43
2018-05-12T05:24:48.327Z,11.37
2018-05-12T05:25:48.353Z,11.52
2018-05-12T05:26:48.321Z,11.55
2018-05-12T05:27:48.318Z,11.55
2018-05-12T05:28:48.319Z,11.70
2018-05-12T05:29:48.531Z,11.72
2018-05-12T05:30:48.318Z,11.81
2018-05-12T05:31:48.330Z,11.75
2018-05-12T05:32:48.315Z,11.86
2018-05-12T05:33:48.315Z,11.88
2018-05-12T05:34:48.324Z,11.87
2018-05-12T05:35:48.316Z,12.03
2018-05-12T05:36:48.528Z,12.18
2018-05-12T05:37:48.326Z,12.17
2018-05-12T05:38:48.312Z,12.18
2018-05-12T05:39:48.312Z,12.29
2018-05-12T05:40:48.311Z,12.24
2018-05-12T05:41:48.336Z,12.29
2018-05-12T05:42:48.311Z,12.40
2018-05-12T05:43:48.334Z,12.42
2018-05-12T05:44:48.323Z,12.35
2018-05-12T05:45:48.309Z,12.50
2018-05-12T05:46:48.324Z,12.57
2018-05-12T05:47:48.520Z,12.61
2018-05-12T05:48:48.332Z,12.65
2018-05-12T05:49:48.315Z,12.73
2018-05-12T05:50:48.311Z,12.76
2018-05-12T05:51:48.311Z,12.87
2018-05-12T05:52:48.320Z,12.85
2018-05-12T05:53:48.317Z,12.90
2018-05-12T05:54:48.511Z,12.94
2018-05-12T05:55:48.538Z,13.00
2018-05-12T05:56:48.319Z,12.98
2018-05-12T05:57:48.306Z,12.97
2018-05-12T05:58:48.339Z,13.11
2018-05-12T05:59:48.350Z,13.12
2018-05-12T06:00:48.303Z,13.15
2018-05-12T06:01:48.319Z,13.28
2018-05-12T06:02:48.321Z,13.22
2018-05-12T06:03:48.314Z,13.37
2018-05-12T06:04:48.329Z,13.35
2018-05-12T06:05:48.336Z,13.38
2018-05-12T06:06:48.426Z,13.44
2018-05-12T06:07:48.319Z,13.54
2018-05-12T06:08:48.375Z,13.57
2018-05-12T06:09:48.338Z,13.63
2018-05-12T06:10:48.319Z,13.70
2018-05-12T06:11:48.320Z,13.77
2018-05-12T06:12:48.319Z,13.90
2018-05-12T06:13:48.328Z,13.92
2018-05-12T06:14:48.307Z,14.00
2018-05-12T06:15:48.324Z,13.92
2018-05-12T06:16:48.306Z,14.05
2018-05-12T06:17:48.307Z,14.08
2018-05-12T06:18:48.329Z,14.20
2018-05-12T06:19:48.324Z,14.28
2018-05-12T06:20:48.323Z,14.40
2018-05-12T06:21:48.309Z,14.53
2018-05-12T06:22:48.310Z,14.70
2018-05-12T06:23:48.312Z,14.73
2018-05-12T06:24:48.308Z,14.81
2018-05-12T06:25:48.311Z,14.97
2018-05-12T06:26:48.525Z,14.89
2018-05-12T06:27:48.411Z,15.09
2018-05-12T06:28:48.315Z,15.18
2018-05-12T06:29:48.316Z,15.37
2018-05-12T06:30:48.315Z,15.47
2018-05-12T06:31:48.325Z,15.68
2018-05-12T06:32:48.338Z,15.90
2018-05-12T06:33:48.316Z,16.10
2018-05-12T06:34:48.532Z,16.23
2018-05-12T06:35:48.317Z,16.31
2018-05-12T06:36:48.334Z,16.46
2018-05-12T06:37:48.362Z,16.54
2018-05-12T06:38:48.525Z,16.57
2018-05-12T06:39:48.329Z,16.76
2018-05-12T06:40:48.323Z,16.78
2018-05-12T06:41:48.332Z,16.86
2018-05-12T06:42:48.542Z,16.91
2018-05-12T06:43:48.325Z,16.96
2018-05-12T06:44:48.328Z,16.97
2018-05-12T06:45:48.531Z,17.16
2018-05-12T06:46:48.341Z,17.15
2018-05-12T06:47:48.544Z,17.22
2018-05-12T06:48:48.559Z,17.22
2018-05-12T06:49:48.352Z,17.33
2018-05-12T06:50:48.336Z,17.51
2018-05-12T06:51:48.347Z,17.48
2018-05-12T06:52:48.396Z,17.54
2018-05-12T06:53:48.547Z,17.64
2018-05-12T06:54:48.343Z,17.74
2018-05-12T06:55:48.341Z,17.79
2018-05-12T06:56:48.349Z,17.85
2018-05-12T06:57:48.354Z,17.92
2018-05-12T06:58:48.348Z,17.94
2018-05-12T06:59:48.364Z,17.97
2018-05-12T07:00:48.366Z,18.03
2018-05-12T07:01:48.554Z,18.03
2018-05-12T07:02:48.352Z,18.16
2018-05-12T07:03:48.353Z,18.22
2018-05-12T07:04:48.581Z,18.34
2018-05-12T07:05:48.359Z,18.26
2018-05-12T07:06:48.371Z,18.35
2018-05-12T07:07:48.377Z,18.26
2018-05-12T07:08:48.367Z,18.29
2018-05-12T07:09:48.579Z,18.33
2018-05-12T07:10:48.569Z,18.29
2018-05-12T07:11:48.391Z,18.31
2018-05-12T07:12:48.577Z,18.35
2018-05-12T07:13:48.386Z,18.22
2018-05-12T07:14:48.579Z,18.38
2018-05-12T07:15:48.377Z,18.45
2018-05-12T07:16:48.390Z,18.60
2018-05-12T07:17:48.379Z,18.78
2018-05-12T07:18:48.391Z,18.83
2018-05-12T07:19:48.396Z,18.90
2018-05-12T07:20:48.589Z,19.11
2018-05-12T07:21:48.390Z,19.26
2018-05-12T07:22:48.391Z,19.47
2018-05-12T07:23:48.395Z,19.62
2018-05-12T07:24:48.393Z,19.64
2018-05-12T07:25:48.612Z,19.81
2018-05-12T07:26:48.601Z,20.07
2018-05-12T07:27:48.402Z,20.28
2018-05-12T07:28:48.404Z,20.41
2018-05-12T07:29:48.416Z,20.41
2018-05-12T07:30:48.419Z,20.59
2018-05-12T07:31:48.415Z,20.70
2018-05-12T07:32:48.430Z,20.74
2018-05-12T07:33:48.418Z,20.78
2018-05-12T07:34:48.419Z,20.77
2018-05-12T07:35:48.421Z,20.65
2018-05-12T07:36:48.420Z,20.75
2018-05-12T07:37:48.635Z,20.82
2018-05-12T07:38:48.438Z,20.72
2018-05-12T07:39:48.428Z,20.75
2018-05-12T07:40:48.431Z,20.67
2018-05-12T07:41:48.448Z,20.67
2018-05-12T07:42:48.441Z,20.66
2018-05-12T07:43:48.443Z,20.56
2018-05-12T07:44:48.452Z,20.56
2018-05-12T07:45:48.657Z,20.63
2018-05-12T07:46:48.464Z,20.63
2018-05-12T07:47:48.449Z,20.80
2018-05-12T07:48:48.481Z,21.00
2018-05-12T07:49:48.670Z,21.32
2018-05-12T07:50:48.669Z,21.36
2018-05-12T07:51:48.460Z,21.35
2018-05-12T07:52:48.491Z,21.40
2018-05-12T07:53:48.482Z,21.33
2018-05-12T07:54:48.686Z,21.22
2018-05-12T07:55:48.471Z,21.03
2018-05-12T07:56:48.546Z,20.90
2018-05-12T07:57:48.682Z,20.82
2018-05-12T07:58:48.491Z,20.67
2018-05-12T07:59:48.482Z,20.55
2018-05-12T08:00:48.484Z,20.39
2018-05-12T08:01:48.487Z,20.37
2018-05-12T08:02:48.506Z,20.36
2018-05-12T08:03:48.495Z,20.40
2018-05-12T08:04:48.497Z,20.36
2018-05-12T08:05:48.499Z,20.40
2018-05-12T08:06:48.514Z,20.50
2018-05-12T08:07:48.508Z,20.55
2018-05-12T08:08:48.526Z,20.58
2018-05-12T08:09:48.523Z,20.58
2018-05-12T08:10:48.537Z,20.84
2018-05-12T08:11:48.519Z,20.97
2018-05-12T08:12:48.753Z,21.09
2018-05-12T08:13:48.526Z,21.05
2018-05-12T08:14:48.538Z,20.97
2018-05-12T08:15:48.734Z,20.95
2018-05-12T08:16:48.547Z,20.90
2018-05-12T08:17:48.545Z,20.81
2018-05-12T08:18:48.555Z,20.84
2018-05-12T08:19:48.543Z,20.93
2018-05-12T08:20:48.546Z,20.99
2018-05-12T08:21:48.572Z,21.07
2018-05-12T08:22:48.554Z,21.03
2018-05-12T08:23:48.769Z,21.12
2018-05-12T08:24:48.770Z,21.20
2018-05-12T08:25:48.571Z,21.25
2018-05-12T08:26:48.582Z,21.24
2018-05-12T08:27:48.570Z,21.30
2018-05-12T08:28:48.576Z,21.42
2018-05-12T08:29:48.574Z,21.69
2018-05-12T08:30:48.607Z,21.88
2018-05-12T08:31:48.594Z,21.93
2018-05-12T08:32:48.583Z,22.07
2018-05-12T08:33:48.597Z,22.06
2018-05-12T08:34:48.618Z,22.04
2018-05-12T08:35:48.622Z,22.11
2018-05-12T08:36:48.613Z,22.06
2018-05-12T08:37:48.610Z,22.02
2018-05-12T08:38:48.606Z,22.06
2018-05-12T08:39:48.615Z,22.15
2018-05-12T08:40:48.835Z,22.15
2018-05-12T08:41:48.612Z,22.08
2018-05-12T08:42:48.821Z,21.98
2018-05-12T08:43:48.835Z,22.02
2018-05-12T08:44:48.637Z,22.08
2018-05-12T08:45:48.831Z,22.04
2018-05-12T08:46:48.640Z,21.96
2018-05-12T08:47:48.654Z,21.89
2018-05-12T08:48:48.851Z,21.85
2018-05-12T08:49:48.641Z,21.93
2018-05-12T08:50:48.859Z,22.06
2018-05-12T08:51:48.675Z,22.13
2018-05-12T08:52:48.661Z,21.85
2018-05-12T08:53:48.685Z,21.60
2018-05-12T08:54:48.657Z,21.40
2018-05-12T08:55:48.660Z,21.22
2018-05-12T08:56:48.664Z,21.21
2018-05-12T08:57:48.665Z,20.92
2018-05-12T08:58:48.888Z,20.78
2018-05-12T08:59:48.673Z,20.63
2018-05-12T09:00:48.676Z,20.55
2018-05-12T09:01:48.702Z,20.44
2018-05-12T09:02:48.897Z,20.31
2018-05-12T09:03:48.687Z,20.18
2018-05-12T09:04:48.892Z,20.29
2018-05-12T09:05:48.691Z,20.06
2018-05-12T09:06:48.695Z,20.16
2018-05-12T09:07:48.701Z,20.09
2018-05-12T09:08:48.732Z,20.18
2018-05-12T09:09:48.934Z,20.22
2018-05-12T09:10:48.706Z,20.34
2018-05-12T09:11:48.711Z,20.44
2018-05-12T09:12:48.720Z,20.51
2018-05-12T09:13:48.717Z,20.59
2018-05-12T09:14:48.739Z,20.70
2018-05-12T09:15:48.723Z,20.96
2018-05-12T09:16:48.741Z,21.25
2018-05-12T09:17:48.945Z,21.45
2018-05-12T09:18:48.746Z,21.70
2018-05-12T09:19:48.935Z,21.88
2018-05-12T09:20:48.741Z,21.88
2018-05-12T09:21:48.750Z,21.57
2018-05-12T09:22:48.745Z,21.27
2018-05-12T09:23:48.763Z,21.21
2018-05-12T09:24:48.766Z,21.24
2018-05-12T09:25:48.754Z,21.54
2018-05-12T09:26:48.977Z,21.79
2018-05-12T09:27:48.759Z,22.10
2018-05-12T09:28:48.979Z,22.17
2018-05-12T09:29:48.766Z,22.15
2018-05-12T09:30:48.771Z,22.06
2018-05-12T09:31:48.782Z,21.80
2018-05-12T09:32:48.785Z,21.58
2018-05-12T09:33:48.780Z,21.40
2018-05-12T09:34:48.786Z,21.60
2018-05-12T09:35:48.996Z,21.93
2018-05-12T09:36:48.791Z,22.29
2018-05-12T09:37:49.004Z,22.15
2018-05-12T09:38:48.796Z,22.02
2018-05-12T09:39:48.808Z,22.14
2018-05-12T09:40:48.814Z,22.11
2018-05-12T09:41:49.016Z,22.17
2018-05-12T09:42:48.817Z,22.35
2018-05-12T09:43:49.016Z,22.48
2018-05-12T09:44:48.828Z,22.59
2018-05-12T09:45:48.832Z,22.66
2018-05-12T09:46:48.829Z,22.73
2018-05-12T09:47:48.827Z,22.87
2018-05-12T09:48:49.040Z,22.80
2018-05-12T09:49:48.861Z,22.76
2018-05-12T09:50:49.049Z,22.76
2018-05-12T09:51:48.848Z,22.66
2018-05-12T09:52:48.854Z,22.68
2018-05-12T09:53:49.057Z,22.72
2018-05-12T09:54:49.049Z,22.63
2018-05-12T09:55:48.864Z,22.63
2018-05-12T09:56:49.077Z,22.62
2018-05-12T09:57:48.872Z,22.60
2018-05-12T09:58:49.074Z,22.54
2018-05-12T09:59:48.868Z,22.41
2018-05-12T10:00:48.888Z,22.41
2018-05-12T10:01:48.872Z,22.33
2018-05-12T10:02:48.888Z,22.33
2018-05-12T10:03:49.080Z,22.28
2018-05-12T10:04:48.883Z,22.23
2018-05-12T10:05:49.087Z,22.15
2018-05-12T10:06:48.889Z,22.11
2018-05-12T10:07:48.894Z,22.04
2018-05-12T10:08:48.908Z,22.04
2018-05-12T10:09:48.912Z,22.06
2018-05-12T10:10:48.908Z,21.92
2018-05-12T10:11:48.907Z,21.92
2018-05-12T10:12:48.963Z,21.91
2018-05-12T10:13:48.917Z,21.79
2018-05-12T10:14:48.919Z,21.70
2018-05-12T10:15:48.938Z,21.64
2018-05-12T10:16:48.925Z,21.73
2018-05-12T10:17:48.942Z,21.75
2018-05-12T10:18:48.942Z,21.73
2018-05-12T10:19:48.934Z,22.00
2018-05-12T10:20:48.941Z,21.95
2018-05-12T10:21:48.970Z,22.11
2018-05-12T10:22:48.953Z,22.25
2018-05-12T10:23:48.976Z,22.36
2018-05-12T10:24:49.153Z,22.41
2018-05-12T10:25:49.157Z,22.62
2018-05-12T10:26:49.169Z,22.59
2018-05-12T10:27:48.983Z,22.66
2018-05-12T10:28:48.980Z,22.62
2018-05-12T10:29:48.973Z,22.54
2018-05-12T10:30:49.187Z,22.59
2018-05-12T10:31:48.979Z,22.60
2018-05-12T10:32:48.981Z,22.54
2018-05-12T10:33:49.199Z,22.66
2018-05-12T10:34:49.002Z,22.69
2018-05-12T10:35:49.221Z,22.66
2018-05-12T10:36:49.006Z,22.69
2018-05-12T10:37:48.998Z,22.54
2018-05-12T10:38:49.076Z,22.59
2018-05-12T10:39:49.005Z,22.48
2018-05-12T10:40:49.030Z,22.53
2018-05-12T10:41:49.012Z,22.65
2018-05-12T10:42:49.246Z,22.65
2018-05-12T10:43:49.020Z,22.69
2018-05-12T10:44:49.061Z,22.57
2018-05-12T10:45:49.038Z,22.59
2018-05-12T10:46:49.034Z,22.59
2018-05-12T10:47:49.240Z,22.54
2018-05-12T10:48:49.241Z,22.36
2018-05-12T10:49:49.043Z,22.35
2018-05-12T10:50:49.047Z,22.33
2018-05-12T10:51:49.065Z,22.32
2018-05-12T10:52:49.274Z,22.33
2018-05-12T10:53:49.068Z,22.30
2018-05-12T10:54:49.077Z,22.35
2018-05-12T10:55:49.266Z,22.47
2018-05-12T10:56:49.080Z,22.47
2018-05-12T10:57:49.289Z,22.50
2018-05-12T10:58:49.076Z,22.65
2018-05-12T10:59:49.081Z,22.65
2018-05-12T11:00:49.110Z,22.73
2018-05-12T11:01:49.099Z,22.78
2018-05-12T11:02:49.089Z,22.73
2018-05-12T11:03:49.106Z,22.75
2018-05-12T11:04:49.110Z,22.73
2018-05-12T11:05:49.306Z,22.72
2018-05-12T11:06:49.106Z,23.00
2018-05-12T11:07:49.136Z,22.80
2018-05-12T11:08:49.112Z,22.78
2018-05-12T11:09:49.116Z,22.81
2018-05-12T11:10:49.134Z,22.90
2018-05-12T11:11:49.134Z,22.98
2018-05-12T11:12:49.152Z,22.88
2018-05-12T11:13:49.160Z,22.81
2018-05-12T11:14:49.139Z,22.85
2018-05-12T11:15:49.443Z,22.84
2018-05-12T11:16:49.158Z,22.88
2018-05-12T11:17:49.165Z,22.98
2018-05-12T11:18:49.161Z,23.03
2018-05-12T11:19:49.169Z,23.09
2018-05-12T11:20:49.183Z,23.02
2018-05-12T11:21:49.260Z,22.99
2018-05-12T11:22:49.384Z,22.85
2018-05-12T11:23:49.399Z,22.88
2018-05-12T11:24:49.172Z,22.78
2018-05-12T11:25:49.192Z,22.72
2018-05-12T11:26:49.398Z,22.65
2018-05-12T11:27:49.184Z,22.76
2018-05-12T11:28:49.190Z,22.84
2018-05-12T11:29:49.206Z,22.93
2018-05-12T11:30:49.412Z,23.03
2018-05-12T11:31:49.198Z,23.02
2018-05-12T11:32:49.204Z,23.05
2018-05-12T11:33:49.211Z,22.98
2018-05-12T11:34:49.210Z,23.02
2018-05-12T11:35:49.415Z,22.99
2018-05-12T11:36:49.219Z,22.98
2018-05-12T11:37:49.436Z,22.99
2018-05-12T11:38:49.267Z,22.99
2018-05-12T11:39:49.237Z,22.98
2018-05-12T11:40:49.256Z,22.99
2018-05-12T11:41:49.239Z,22.94
2018-05-12T11:42:49.243Z,22.63
2018-05-12T11:43:49.246Z,22.41
2018-05-12T11:44:49.271Z,22.33
2018-05-12T11:45:49.250Z,22.22
2018-05-12T11:46:49.468Z,22.22
2018-05-12T11:47:49.274Z,22.23
2018-05-12T11:48:49.479Z,22.20
2018-05-12T11:49:49.471Z,22.35
2018-05-12T11:50:49.484Z,22.41
2018-05-12T11:51:49.286Z,22.59
2018-05-12T11:52:49.479Z,22.68
2018-05-12T11:53:49.510Z,22.66
2018-05-12T11:54:49.292Z,22.65
2018-05-12T11:55:49.304Z,22.59
2018-05-12T11:56:49.313Z,22.63
2018-05-12T11:57:49.313Z,22.90
2018-05-12T11:58:49.323Z,22.88
2018-05-12T11:59:49.507Z,22.88
2018-05-12T12:00:49.318Z,22.75
2018-05-12T12:01:49.312Z,22.57
2018-05-12T12:02:49.321Z,22.62
2018-05-12T12:03:49.377Z,22.59
2018-05-12T12:04:49.344Z,22.50
2018-05-12T12:05:49.338Z,22.41
2018-05-12T12:06:49.357Z,22.54
2018-05-12T12:07:49.347Z,22.57
2018-05-12T12:08:49.356Z,22.57
2018-05-12T12:09:49.344Z,22.51
2018-05-12T12:10:49.584Z,22.59
2018-05-12T12:11:49.351Z,22.69
2018-05-12T12:12:49.355Z,22.73
2018-05-12T12:13:49.369Z,22.78
2018-05-12T12:14:49.378Z,22.84
2018-05-12T12:15:49.375Z,22.94
2018-05-12T12:16:49.368Z,22.91
2018-05-12T12:17:49.577Z,22.87
2018-05-12T12:18:49.379Z,22.81
2018-05-12T12:19:49.407Z,22.76
2018-05-12T12:20:49.396Z,22.73
2018-05-12T12:21:49.416Z,22.72
2018-05-12T12:22:49.409Z,22.76
2018-05-12T12:23:49.610Z,22.75
2018-05-12T12:24:49.419Z,22.54
2018-05-12T12:25:49.409Z,22.44
2018-05-12T12:26:49.411Z,22.18
2018-05-12T12:27:49.411Z,22.14
2018-05-12T12:28:49.415Z,22.10
2018-05-12T12:29:49.626Z,22.28
2018-05-12T12:30:49.628Z,22.23
2018-05-12T12:31:49.428Z,22.43
2018-05-12T12:32:49.452Z,22.45
2018-05-12T12:33:49.450Z,22.47
2018-05-12T12:34:49.439Z,22.51
2018-05-12T12:35:49.455Z,22.41
2018-05-12T12:36:49.461Z,22.38
2018-05-12T12:37:49.667Z,22.35
2018-05-12T12:38:49.464Z,22.41
2018-05-12T12:39:49.487Z,22.41
2018-05-12T12:40:49.473Z,22.35
2018-05-12T12:41:49.466Z,22.36
2018-05-12T12:42:49.468Z,22.30
2018-05-12T12:43:49.687Z,22.18
2018-05-12T12:44:49.511Z,22.14
2018-05-12T12:45:49.506Z,22.08
2018-05-12T12:46:49.499Z,22.15
2018-05-12T12:47:49.489Z,22.10
2018-05-12T12:48:49.506Z,22.18
2018-05-12T12:49:49.729Z,22.28
2018-05-12T12:50:49.515Z,22.39
2018-05-12T12:51:49.537Z,22.44
2018-05-12T12:52:49.722Z,22.53
2018-05-12T12:53:49.514Z,22.48
2018-05-12T12:54:49.527Z,22.38
2018-05-12T12:55:49.543Z,22.43
2018-05-12T12:56:49.523Z,22.47
2018-05-12T12:57:49.537Z,22.50